Time,TemperatureF,DewpointF,PressureIn,WindDirection,WindDirectionDegrees,WindSpeedMPH,WindSpeedGustMPH,Humidity,HourlyPrecipIn,Conditions,Clouds,dailyrainin,SoftwareType,DateUTC
2013-08-08 00:01:00,67.8,64.1,30.02,SE,135,0.0,0.0,88,0.00,,,0.61,WUHU21623XXSP,2013-08-08 04:01:00,
2013-08-08 00:06:00,67.8,64.1,30.02,SE,135,0.0,0.0,88,0.00,,,0.00,WUHU21623XXSP,2013-08-08 04:06:00,
2013-08-08 00:11:00,67.8,64.1,30.02,SE,135,0.0,0.0,88,0.00,,,0.00,WUHU21623XXSP,2013-08-08 04:11:00,
2013-08-08 00:16:00,67.8,64.1,30.02,SE,135,0.0,0.0,88,0.00,,,0.00,WUHU21623XXSP,2013-08-08 04:16:00,
2013-08-08 00:21:00,67.8,64.1,30.02,SE,135,0.0,0.0,88,0.00,,,0.00,WUHU21623XXSP,2013-08-08 04:21:00,
2013-08-08 00:26:00,67.8,64.1,30.02,SE,135,0.0,0.0,88,0.00,,,0.00,WUHU21623XXSP,2013-08-08 04:26:00,
2013-08-08 00:31:00,67.8,64.1,30.02,SE,135,0.0,0.0,88,0.00,,,0.00,WUHU21623XXSP,2013-08-08 04:31:00,
2013-08-08 00:36:00,67.8,64.1,30.02,SE,135,0.0,0.0,88,0.00,,,0.00,WUHU21623XXSP,2013-08-08 04:36:00,
2013-08-08 00:41:00,67.8,64.1,30.02,SE,135,0.0,0.0,88,0.00,,,0.00,WUHU21623XXSP,2013-08-08 04:41:00,
2013-08-08 00:46:00,67.8,64.1,30.02,SE,135,0.0,0.0,88,0.00,,,0.00,WUHU21623XXSP,2013-08-08 04:46:00,
2013-08-08 00:51:00,67.8,64.1,30.02,SE,135,0.0,0.0,88,0.00,,,0.00,WUHU21623XXSP,2013-08-08 04:51:00,
2013-08-08 00:56:00,67.8,64.1,30.01,SE,135,0.0,0.0,88,0.00,,,0.00,WUHU21623XXSP,2013-08-08 04:56:00,
2013-08-08 01:01:00,68.2,64.8,30.01,SE,135,0.0,0.0,89,0.00,,,0.00,WUHU21623XXSP,2013-08-08 05:01:00,
2013-08-08 01:06:00,68.2,64.8,30.01,SE,135,0.0,0.0,89,0.00,,,0.00,WUHU21623XXSP,2013-08-08 05:06:00,
2013-08-08 01:11:00,68.2,64.8,30.01,SE,135,0.0,0.0,89,0.00,,,0.00,WUHU21623XXSP,2013-08-08 05:11:00,
2013-08-08 01:16:00,68.2,64.8,30.01,SE,135,0.0,0.0,89,0.00,,,0.00,WUHU21623XXSP,2013-08-08 05:16:00,
2013-08-08 01:21:00,68.0,64.8,30.01,SE,135,0.0,0.0,89,0.00,,,0.00,WUHU21623XXSP,2013-08-08 05:21:00,
2013-08-08 01:26:00,68.0,64.6,30.00,SE,135,0.0,0.0,89,0.00,,,0.00,WUHU21623XXSP,2013-08-08 05:26:00,
2013-08-08 01:31:00,67.8,64.1,30.00,SE,135,0.0,0.0,88,0.00,,,0.00,WUHU21623XXSP,2013-08-08 05:31:00,
2013-08-08 01:36:00,67.8,64.1,30.00,SE,135,0.0,0.0,88,0.00,,,0.00,WUHU21623XXSP,2013-08-08 05:36:00,
2013-08-08 01:41:00,67.8,64.1,30.00,SE,135,0.0,0.0,88,0.00,,,0.00,WUHU21623XXSP,2013-08-08 05:41:00,
2013-08-08 01:46:00,67.8,64.1,30.00,SE,135,0.0,0.0,88,0.00,,,0.00,WUHU21623XXSP,2013-08-08 05:46:00,
2013-08-08 01:51:00,67.8,64.1,30.00,SE,135,0.0,0.0,88,0.00,,,0.00,WUHU21623XXSP,2013-08-08 05:51:00,
2013-08-08 01:56:00,67.8,64.1,30.00,SE,135,0.0,0.0,88,0.00,,,0.00,WUHU21623XXSP,2013-08-08 05:56:00,
2013-08-08 02:01:00,67.8,64.1,30.00,SE,135,0.0,0.0,88,0.00,,,0.00,WUHU21623XXSP,2013-08-08 06:01:00,
2013-08-08 02:06:00,67.8,64.1,30.00,SE,135,0.0,0.0,88,0.00,,,0.00,WUHU21623XXSP,2013-08-08 06:06:00,
2013-08-08 02:11:00,67.8,64.1,30.00,SE,135,0.0,0.0,88,0.00,,,0.00,WUHU21623XXSP,2013-08-08 06:11:00,
2013-08-08 02:16:00,67.8,64.1,30.00,SE,135,0.0,0.0,88,0.00,,,0.00,WUHU21623XXSP,2013-08-08 06:16:00,
2013-08-08 02:21:00,67.6,63.9,30.00,SE,135,0.0,0.0,88,0.00,,,0.00,WUHU21623XXSP,2013-08-08 06:21:00,
2013-08-08 02:26:00,67.6,63.9,30.00,SE,135,0.0,0.0,88,0.00,,,0.00,WUHU21623XXSP,2013-08-08 06:26:00,
2013-08-08 02:31:00,67.6,63.9,30.00,SE,135,0.0,0.0,88,0.00,,,0.00,WUHU21623XXSP,2013-08-08 06:31:00,
2013-08-08 02:36:00,67.6,63.9,30.00,SE,135,0.0,0.0,88,0.00,,,0.00,WUHU21623XXSP,2013-08-08 06:36:00,
2013-08-08 02:41:00,67.6,63.9,30.00,SE,135,0.0,0.0,88,0.00,,,0.00,WUHU21623XXSP,2013-08-08 06:41:00,
2013-08-08 02:46:00,67.6,63.9,30.00,SE,135,0.0,0.0,88,0.00,,,0.00,WUHU21623XXSP,2013-08-08 06:46:00,
2013-08-08 02:51:00,67.6,63.9,30.00,SE,135,0.0,0.0,88,0.00,,,0.00,WUHU21623XXSP,2013-08-08 06:51:00,
2013-08-08 02:56:00,67.6,63.9,30.00,SE,135,0.0,0.0,88,0.00,,,0.00,WUHU21623XXSP,2013-08-08 06:56:00,
2013-08-08 03:01:00,67.6,63.9,29.99,SE,135,0.0,0.0,88,0.00,,,0.00,WUHU21623XXSP,2013-08-08 07:01:00,
2013-08-08 03:06:00,67.6,63.9,30.00,SE,135,0.0,0.0,88,0.00,,,0.00,WUHU21623XXSP,2013-08-08 07:06:00,
2013-08-08 03:11:00,67.6,63.9,30.00,SE,135,0.0,0.0,88,0.00,,,0.00,WUHU21623XXSP,2013-08-08 07:11:00,
2013-08-08 03:16:00,67.6,63.9,30.00,SE,135,0.0,0.0,88,0.00,,,0.00,WUHU21623XXSP,2013-08-08 07:16:00,
2013-08-08 03:21:00,67.6,63.9,30.00,SE,135,0.0,0.0,88,0.00,,,0.00,WUHU21623XXSP,2013-08-08 07:21:00,
2013-08-08 03:26:00,67.6,63.9,30.00,SE,135,0.0,0.0,88,0.00,,,0.00,WUHU21623XXSP,2013-08-08 07:26:00,
2013-08-08 03:31:00,67.5,63.8,30.00,SE,135,0.0,0.0,88,0.00,,,0.00,WUHU21623XXSP,2013-08-08 07:31:00,
2013-08-08 03:36:00,67.6,63.9,29.99,SE,135,0.0,0.0,88,0.00,,,0.00,WUHU21623XXSP,2013-08-08 07:36:00,
2013-08-08 03:41:00,67.5,63.8,29.99,SE,135,0.0,0.0,88,0.00,,,0.00,WUHU21623XXSP,2013-08-08 07:41:00,
2013-08-08 03:46:00,67.5,63.8,30.00,SE,135,0.0,0.0,88,0.00,,,0.00,WUHU21623XXSP,2013-08-08 07:46:00,
2013-08-08 03:52:00,67.5,63.8,30.00,SE,135,0.0,0.0,88,0.00,,,0.00,WUHU21623XXSP,2013-08-08 07:52:00,
2013-08-08 03:56:00,67.5,63.8,30.00,SE,135,0.0,0.0,88,0.00,,,0.00,WUHU21623XXSP,2013-08-08 07:56:00,
2013-08-08 04:02:00,67.5,63.8,30.00,SE,135,0.0,0.0,88,0.00,,,0.00,WUHU21623XXSP,2013-08-08 08:02:00,
2013-08-08 04:07:00,67.3,63.6,30.00,SE,135,0.0,0.0,88,0.00,,,0.00,WUHU21623XXSP,2013-08-08 08:07:00,
2013-08-08 04:11:00,67.3,63.6,30.00,SE,135,0.0,0.0,88,0.00,,,0.00,WUHU21623XXSP,2013-08-08 08:11:00,
2013-08-08 04:16:00,67.3,63.6,30.00,SE,135,0.0,0.0,88,0.00,,,0.00,WUHU21623XXSP,2013-08-08 08:16:00,
2013-08-08 04:21:00,67.3,63.6,30.00,SE,135,0.0,0.0,88,0.00,,,0.00,WUHU21623XXSP,2013-08-08 08:21:00,
2013-08-08 04:26:00,67.3,63.6,30.00,SE,135,0.0,0.0,88,0.00,,,0.00,WUHU21623XXSP,2013-08-08 08:26:00,
2013-08-08 04:31:00,67.5,63.8,30.00,SE,135,0.0,0.0,88,0.00,,,0.00,WUHU21623XXSP,2013-08-08 08:31:00,
2013-08-08 04:36:00,67.6,64.3,30.00,SE,135,0.0,0.0,89,0.00,,,0.00,WUHU21623XXSP,2013-08-08 08:36:00,
2013-08-08 04:41:00,67.6,64.3,30.00,SE,135,0.0,0.0,89,0.00,,,0.00,WUHU21623XXSP,2013-08-08 08:41:00,
2013-08-08 04:46:00,67.6,64.3,30.00,SE,135,0.0,0.0,89,0.00,,,0.00,WUHU21623XXSP,2013-08-08 08:46:00,
2013-08-08 04:51:00,67.6,64.3,30.00,SE,135,0.0,0.0,89,0.00,,,0.00,WUHU21623XXSP,2013-08-08 08:51:00,
2013-08-08 04:56:00,67.6,64.3,30.00,SE,135,0.0,0.0,89,0.00,,,0.00,WUHU21623XXSP,2013-08-08 08:56:00,
2013-08-08 05:01:00,67.6,64.3,30.00,SE,135,0.0,0.0,89,0.00,,,0.00,WUHU21623XXSP,2013-08-08 09:01:00,
2013-08-08 05:06:00,67.6,64.3,30.00,SE,135,0.0,0.0,89,0.00,,,0.00,WUHU21623XXSP,2013-08-08 09:06:00,
2013-08-08 05:11:00,67.6,64.3,30.00,SE,135,0.0,0.0,89,0.00,,,0.00,WUHU21623XXSP,2013-08-08 09:11:00,
2013-08-08 05:16:00,67.6,64.3,30.00,SE,135,0.0,0.0,89,0.00,,,0.00,WUHU21623XXSP,2013-08-08 09:16:00,
2013-08-08 05:21:00,67.6,64.3,30.00,SE,135,0.0,0.0,89,0.00,,,0.00,WUHU21623XXSP,2013-08-08 09:21:00,
2013-08-08 05:26:00,67.6,64.3,30.00,SE,135,0.0,0.0,89,0.00,,,0.00,WUHU21623XXSP,2013-08-08 09:26:00,
2013-08-08 05:31:00,67.6,64.3,30.00,SE,135,0.0,0.0,89,0.00,,,0.00,WUHU21623XXSP,2013-08-08 09:31:00,
2013-08-08 05:36:00,67.6,64.3,30.00,SE,135,0.0,0.0,89,0.00,,,0.00,WUHU21623XXSP,2013-08-08 09:36:00,
2013-08-08 05:41:00,67.6,64.3,30.00,SE,135,0.0,0.0,89,0.00,,,0.00,WUHU21623XXSP,2013-08-08 09:41:00,
2013-08-08 05:46:00,67.6,64.3,30.00,SE,135,0.0,0.0,89,0.00,,,0.00,WUHU21623XXSP,2013-08-08 09:46:00,
2013-08-08 05:51:00,67.6,64.3,30.00,SE,135,0.0,0.0,89,0.00,,,0.00,WUHU21623XXSP,2013-08-08 09:51:00,
2013-08-08 05:56:00,67.6,64.3,30.00,SE,135,0.0,0.0,89,0.00,,,0.00,WUHU21623XXSP,2013-08-08 09:56:00,
2013-08-08 06:01:00,67.6,64.3,30.00,SE,135,0.0,0.0,89,0.00,,,0.00,WUHU21623XXSP,2013-08-08 10:01:00,
2013-08-08 06:06:00,67.6,64.3,30.00,SE,135,0.0,0.0,89,0.00,,,0.00,WUHU21623XXSP,2013-08-08 10:06:00,
2013-08-08 06:11:00,67.8,64.4,30.00,SE,135,0.0,0.0,89,0.00,,,0.00,WUHU21623XXSP,2013-08-08 10:11:00,
2013-08-08 06:16:00,67.8,64.4,30.00,SE,135,0.0,0.0,89,0.00,,,0.00,WUHU21623XXSP,2013-08-08 10:16:00,
2013-08-08 06:21:00,67.8,64.4,30.00,SE,135,0.0,0.0,89,0.00,,,0.00,WUHU21623XXSP,2013-08-08 10:21:00,
2013-08-08 06:26:00,67.8,64.4,30.00,SE,135,0.0,0.0,89,0.00,,,0.00,WUHU21623XXSP,2013-08-08 10:26:00,
2013-08-08 06:31:00,67.8,64.4,30.00,SE,135,0.0,0.0,89,0.00,,,0.00,WUHU21623XXSP,2013-08-08 10:31:00,
2013-08-08 06:36:00,67.8,64.4,30.00,SE,135,0.0,0.0,89,0.00,,,0.00,WUHU21623XXSP,2013-08-08 10:36:00,
2013-08-08 06:41:00,67.8,64.4,30.00,SE,135,0.0,0.0,89,0.00,,,0.00,WUHU21623XXSP,2013-08-08 10:41:00,
2013-08-08 06:46:00,67.8,64.4,30.00,SE,135,0.0,0.0,89,0.00,,,0.00,WUHU21623XXSP,2013-08-08 10:46:00,
2013-08-08 06:51:00,67.8,64.4,30.00,SE,135,0.0,0.0,89,0.00,,,0.00,WUHU21623XXSP,2013-08-08 10:51:00,
2013-08-08 06:56:00,67.8,64.4,30.00,SE,135,0.0,0.0,89,0.00,,,0.00,WUHU21623XXSP,2013-08-08 10:56:00,
2013-08-08 07:01:00,68.0,64.6,30.01,SE,135,0.0,0.0,89,0.00,,,0.00,WUHU21623XXSP,2013-08-08 11:01:00,
2013-08-08 07:06:00,68.2,64.8,30.01,SE,135,0.0,0.0,89,0.00,,,0.00,WUHU21623XXSP,2013-08-08 11:06:00,
2013-08-08 07:11:00,68.0,64.6,30.01,SE,135,0.0,0.0,89,0.00,,,0.00,WUHU21623XXSP,2013-08-08 11:11:00,
2013-08-08 07:16:00,68.2,64.8,30.02,SE,135,0.0,0.0,89,0.00,,,0.00,WUHU21623XXSP,2013-08-08 11:16:00,
2013-08-08 07:21:00,68.2,64.8,30.01,SE,135,0.0,0.0,89,0.00,,,0.00,WUHU21623XXSP,2013-08-08 11:21:00,
2013-08-08 07:26:00,68.2,64.8,30.01,SE,135,0.0,0.0,89,0.00,,,0.00,WUHU21623XXSP,2013-08-08 11:26:00,
2013-08-08 07:31:00,68.2,64.8,30.01,SE,135,0.0,0.0,89,0.00,,,0.00,WUHU21623XXSP,2013-08-08 11:31:00,
2013-08-08 07:36:00,68.4,65.0,30.01,SE,135,0.0,0.0,89,0.00,,,0.00,WUHU21623XXSP,2013-08-08 11:36:00,
2013-08-08 07:42:00,68.5,65.1,30.01,SE,135,0.0,0.0,89,0.00,,,0.00,WUHU21623XXSP,2013-08-08 11:42:00,
2013-08-08 07:47:00,68.5,65.1,30.01,SE,135,0.0,0.0,89,0.00,,,0.00,WUHU21623XXSP,2013-08-08 11:47:00,
2013-08-08 07:52:00,68.5,65.1,30.01,SE,135,0.0,0.0,89,0.00,,,0.00,WUHU21623XXSP,2013-08-08 11:52:00,
2013-08-08 07:57:00,68.5,65.1,30.01,SE,135,0.0,0.0,89,0.00,,,0.00,WUHU21623XXSP,2013-08-08 11:57:00,
2013-08-08 08:02:00,68.5,65.1,30.02,SE,135,0.0,0.0,89,0.00,,,0.00,WUHU21623XXSP,2013-08-08 12:02:00,
2013-08-08 08:07:00,68.5,65.1,30.02,SE,135,0.0,0.0,89,0.00,,,0.00,WUHU21623XXSP,2013-08-08 12:07:00,
2013-08-08 08:12:00,68.7,65.3,30.02,SE,135,0.0,0.0,89,0.00,,,0.00,WUHU21623XXSP,2013-08-08 12:12:00,
2013-08-08 08:17:00,68.7,65.3,30.02,SE,135,0.0,0.0,89,0.00,,,0.00,WUHU21623XXSP,2013-08-08 12:17:00,
2013-08-08 08:22:00,68.9,65.5,30.01,SE,135,0.0,0.0,89,0.00,,,0.00,WUHU21623XXSP,2013-08-08 12:22:00,
2013-08-08 08:27:00,69.1,65.7,30.01,SE,135,0.0,0.0,89,0.00,,,0.00,WUHU21623XXSP,2013-08-08 12:27:00,
2013-08-08 08:32:00,69.4,65.9,30.02,SE,135,0.0,0.0,89,0.00,,,0.00,WUHU21623XXSP,2013-08-08 12:32:00,
2013-08-08 08:37:00,69.4,66.0,30.02,SE,135,0.0,0.0,89,0.00,,,0.00,WUHU21623XXSP,2013-08-08 12:37:00,
2013-08-08 08:42:00,69.6,66.2,30.02,SE,135,0.0,0.0,89,0.00,,,0.00,WUHU21623XXSP,2013-08-08 12:42:00,
2013-08-08 08:47:00,69.8,66.7,30.02,SE,135,0.0,0.0,90,0.00,,,0.00,WUHU21623XXSP,2013-08-08 12:47:00,
2013-08-08 08:52:00,70.3,67.3,30.02,SE,135,0.0,0.0,90,0.00,,,0.00,WUHU21623XXSP,2013-08-08 12:52:00,
2013-08-08 08:57:00,70.5,67.5,30.02,SE,135,0.0,0.0,90,0.00,,,0.00,WUHU21623XXSP,2013-08-08 12:57:00,
2013-08-08 09:02:00,70.5,67.5,30.02,SE,135,0.0,0.0,90,0.00,,,0.00,WUHU21623XXSP,2013-08-08 13:02:00,
2013-08-08 09:07:00,70.7,67.6,30.02,SE,135,0.0,0.0,90,0.00,,,0.00,WUHU21623XXSP,2013-08-08 13:07:00,
2013-08-08 09:12:00,70.9,67.8,30.02,SE,135,0.0,0.0,90,0.00,,,0.00,WUHU21623XXSP,2013-08-08 13:12:00,
2013-08-08 09:17:00,71.2,68.2,30.03,SE,135,0.0,0.0,90,0.00,,,0.00,WUHU21623XXSP,2013-08-08 13:17:00,
2013-08-08 09:22:00,71.2,67.8,30.02,SE,135,0.0,0.0,89,0.00,,,0.00,WUHU21623XXSP,2013-08-08 13:22:00,
2013-08-08 09:27:00,71.4,68.0,30.02,SE,135,0.0,0.0,89,0.00,,,0.00,WUHU21623XXSP,2013-08-08 13:27:00,
2013-08-08 09:32:00,71.6,68.2,30.02,SSE,157,0.0,0.0,89,0.00,,,0.00,WUHU21623XXSP,2013-08-08 13:32:00,
2013-08-08 09:37:00,71.8,68.4,30.02,SSE,157,0.0,0.0,89,0.00,,,0.00,WUHU21623XXSP,2013-08-08 13:37:00,
2013-08-08 09:42:00,72.0,68.2,30.02,South,180,0.0,0.0,88,0.00,,,0.00,WUHU21623XXSP,2013-08-08 13:42:00,
2013-08-08 09:47:00,72.3,68.4,30.02,South,180,0.0,0.0,88,0.00,,,0.00,WUHU21623XXSP,2013-08-08 13:47:00,
2013-08-08 09:52:00,72.5,68.6,30.02,SW,225,0.0,0.0,88,0.00,,,0.00,WUHU21623XXSP,2013-08-08 13:52:00,
2013-08-08 09:57:00,72.7,68.6,30.02,SW,225,0.0,0.0,87,0.00,,,0.00,WUHU21623XXSP,2013-08-08 13:57:00,
2013-08-08 10:02:00,73.6,69.1,30.02,SW,225,0.0,0.0,87,0.00,,,0.00,WUHU21623XXSP,2013-08-08 14:02:00,
2013-08-08 10:07:00,74.5,69.7,30.02,SW,225,0.0,0.0,85,0.00,,,0.00,WUHU21623XXSP,2013-08-08 14:07:00,
2013-08-08 10:12:00,75.0,70.1,30.02,SE,135,0.0,0.0,84,0.00,,,0.00,WUHU21623XXSP,2013-08-08 14:12:00,
2013-08-08 10:17:00,75.0,69.6,30.01,SW,225,0.0,0.0,83,0.00,,,0.00,WUHU21623XXSP,2013-08-08 14:17:00,
2013-08-08 10:22:00,75.4,69.6,30.02,SSW,202,0.0,0.0,82,0.00,,,0.00,WUHU21623XXSP,2013-08-08 14:22:00,
2013-08-08 10:27:00,75.0,69.2,30.02,SW,225,0.0,0.0,82,0.00,,,0.00,WUHU21623XXSP,2013-08-08 14:27:00,
2013-08-08 10:32:00,75.0,69.6,30.02,SW,225,0.0,0.0,83,0.00,,,0.00,WUHU21623XXSP,2013-08-08 14:32:00,
2013-08-08 10:37:00,75.0,69.2,30.02,SW,225,0.0,0.0,82,0.00,,,0.00,WUHU21623XXSP,2013-08-08 14:37:00,
2013-08-08 10:42:00,75.0,69.2,30.02,West,270,0.0,0.0,82,0.00,,,0.00,WUHU21623XXSP,2013-08-08 14:42:00,
2013-08-08 10:47:00,74.8,69.0,30.02,West,270,0.0,0.0,82,0.00,,,0.00,WUHU21623XXSP,2013-08-08 14:47:00,
2013-08-08 10:52:00,74.5,68.7,30.02,WSW,247,0.0,0.0,82,0.00,,,0.00,WUHU21623XXSP,2013-08-08 14:52:00,
2013-08-08 10:57:00,74.5,68.7,30.03,WSW,247,0.0,0.0,82,0.00,,,0.00,WUHU21623XXSP,2013-08-08 14:57:00,
2013-08-08 11:02:00,74.5,68.7,30.03,SW,225,0.0,0.0,83,0.00,,,0.00,WUHU21623XXSP,2013-08-08 15:02:00,
2013-08-08 11:07:00,74.5,69.0,30.03,SW,225,0.0,0.0,83,0.00,,,0.00,WUHU21623XXSP,2013-08-08 15:07:00,
2013-08-08 11:12:00,75.0,69.4,30.03,WSW,247,0.0,0.0,82,0.00,,,0.00,WUHU21623XXSP,2013-08-08 15:12:00,
2013-08-08 11:17:00,75.0,69.6,30.03,NW,315,0.0,0.0,83,0.00,,,0.00,WUHU21623XXSP,2013-08-08 15:17:00,
2013-08-08 11:22:00,75.0,69.2,30.03,WNW,292,0.0,0.0,82,0.00,,,0.00,WUHU21623XXSP,2013-08-08 15:22:00,
2013-08-08 11:27:00,75.0,69.2,30.03,WNW,292,0.0,0.0,82,0.00,,,0.00,WUHU21623XXSP,2013-08-08 15:27:00,
2013-08-08 11:32:00,75.0,69.2,30.03,WNW,292,0.0,0.0,82,0.00,,,0.00,WUHU21623XXSP,2013-08-08 15:32:00,
2013-08-08 11:37:00,75.0,69.2,30.04,WSW,247,0.0,0.0,82,0.00,,,0.00,WUHU21623XXSP,2013-08-08 15:37:00,
2013-08-08 11:42:00,75.0,69.2,30.03,WSW,247,0.0,0.0,82,0.00,,,0.00,WUHU21623XXSP,2013-08-08 15:42:00,
2013-08-08 11:47:00,75.0,69.2,30.03,WSW,247,0.0,0.0,82,0.00,,,0.00,WUHU21623XXSP,2013-08-08 15:47:00,
2013-08-08 11:52:00,75.2,69.4,30.03,WSW,247,0.0,0.0,82,0.00,,,0.00,WUHU21623XXSP,2013-08-08 15:52:00,
2013-08-08 11:57:00,75.6,69.7,30.03,WSW,247,0.0,0.0,82,0.00,,,0.00,WUHU21623XXSP,2013-08-08 15:57:00,
2013-08-08 12:02:00,75.6,69.4,30.03,ESE,112,0.0,0.0,81,0.00,,,0.00,WUHU21623XXSP,2013-08-08 16:02:00,
2013-08-08 12:06:00,75.7,69.9,30.03,ESE,112,0.0,0.0,81,0.00,,,0.00,WUHU21623XXSP,2013-08-08 16:06:00,
2013-08-08 12:11:00,75.7,69.5,30.03,SE,135,0.0,0.0,81,0.00,,,0.00,WUHU21623XXSP,2013-08-08 16:11:00,
2013-08-08 12:16:00,75.9,70.1,30.03,ESE,112,0.0,0.0,82,0.00,,,0.00,WUHU21623XXSP,2013-08-08 16:16:00,
2013-08-08 12:21:00,76.3,69.9,30.03,ESE,112,0.0,0.0,81,0.00,,,0.00,WUHU21623XXSP,2013-08-08 16:21:00,
2013-08-08 12:26:00,76.3,70.0,30.03,ESE,112,0.0,0.0,81,0.00,,,0.00,WUHU21623XXSP,2013-08-08 16:26:00,
2013-08-08 12:31:00,76.6,70.0,30.03,ESE,112,0.0,0.0,80,0.00,,,0.00,WUHU21623XXSP,2013-08-08 16:31:00,
2013-08-08 12:36:00,76.8,70.2,30.03,ESE,112,0.0,0.0,80,0.00,,,0.00,WUHU21623XXSP,2013-08-08 16:36:00,
2013-08-08 12:41:00,76.8,70.2,30.03,SE,135,0.0,0.0,80,0.00,,,0.00,WUHU21623XXSP,2013-08-08 16:41:00,
2013-08-08 12:46:00,77.2,70.5,30.03,SE,135,0.0,0.0,80,0.00,,,0.00,WUHU21623XXSP,2013-08-08 16:46:00,
2013-08-08 12:51:00,77.5,70.5,30.03,SE,135,0.0,0.0,79,0.00,,,0.00,WUHU21623XXSP,2013-08-08 16:51:00,
2013-08-08 12:56:00,77.7,70.7,30.03,SE,135,0.0,0.0,78,0.00,,,0.00,WUHU21623XXSP,2013-08-08 16:56:00,
2013-08-08 13:01:00,77.7,70.3,30.03,SE,135,0.0,0.0,78,0.00,,,0.00,WUHU21623XXSP,2013-08-08 17:01:00,
2013-08-08 13:06:00,77.7,70.3,30.03,SE,135,0.0,0.0,78,0.00,,,0.00,WUHU21623XXSP,2013-08-08 17:06:00,
2013-08-08 13:12:00,77.7,70.3,30.03,SE,135,0.0,0.0,79,0.00,,,0.00,WUHU21623XXSP,2013-08-08 17:12:00,
2013-08-08 13:16:00,78.1,71.0,30.03,SE,135,0.0,0.0,79,0.00,,,0.00,WUHU21623XXSP,2013-08-08 17:16:00,
2013-08-08 13:21:00,78.1,70.6,30.03,SE,135,0.0,0.0,78,0.00,,,0.00,WUHU21623XXSP,2013-08-08 17:21:00,
2013-08-08 13:26:00,78.1,70.6,30.02,SE,135,0.0,0.0,78,0.00,,,0.00,WUHU21623XXSP,2013-08-08 17:26:00,
2013-08-08 13:31:00,78.1,70.6,30.02,ESE,112,0.0,0.0,78,0.00,,,0.00,WUHU21623XXSP,2013-08-08 17:31:00,
2013-08-08 13:36:00,78.1,70.6,30.02,ESE,112,0.0,0.0,78,0.00,,,0.00,WUHU21623XXSP,2013-08-08 17:36:00,
2013-08-08 13:41:00,78.4,71.0,30.01,ESE,112,0.0,0.0,78,0.00,,,0.00,WUHU21623XXSP,2013-08-08 17:41:00,
2013-08-08 13:46:00,78.6,71.2,30.01,ESE,112,0.0,0.0,78,0.00,,,0.00,WUHU21623XXSP,2013-08-08 17:46:00,
2013-08-08 13:51:00,79.0,71.5,30.01,SE,135,0.0,0.0,78,0.00,,,0.00,WUHU21623XXSP,2013-08-08 17:51:00,
2013-08-08 13:56:00,79.0,71.1,30.01,SE,135,0.0,0.0,77,0.00,,,0.00,WUHU21623XXSP,2013-08-08 17:56:00,
2013-08-08 14:01:00,78.6,70.8,30.01,SE,135,0.0,0.0,77,0.00,,,0.00,WUHU21623XXSP,2013-08-08 18:01:00,
2013-08-08 14:06:00,79.0,71.5,30.01,SE,135,0.0,0.0,78,0.00,,,0.00,WUHU21623XXSP,2013-08-08 18:06:00,
2013-08-08 14:11:00,79.5,72.1,30.01,SSW,202,0.0,0.0,78,0.00,,,0.00,WUHU21623XXSP,2013-08-08 18:11:00,
2013-08-08 14:16:00,80.2,71.6,30.00,SW,225,0.0,0.0,75,0.00,,,0.00,WUHU21623XXSP,2013-08-08 18:16:00,
2013-08-08 14:21:00,80.2,71.2,30.00,SE,135,0.0,0.0,74,0.00,,,0.00,WUHU21623XXSP,2013-08-08 18:21:00,
2013-08-08 14:26:00,80.1,71.0,30.00,SE,135,0.0,0.0,74,0.00,,,0.00,WUHU21623XXSP,2013-08-08 18:26:00,
2013-08-08 14:31:00,80.1,71.4,30.00,SSE,157,0.0,0.0,75,0.00,,,0.00,WUHU21623XXSP,2013-08-08 18:31:00,
2013-08-08 14:36:00,80.2,71.2,30.00,SSE,157,0.0,0.0,74,0.00,,,0.00,WUHU21623XXSP,2013-08-08 18:36:00,
2013-08-08 14:41:00,80.4,71.4,30.00,WNW,292,0.0,0.0,74,0.00,,,0.00,WUHU21623XXSP,2013-08-08 18:41:00,
2013-08-08 14:47:00,80.8,71.3,30.00,SW,225,0.0,0.0,73,0.00,,,0.00,WUHU21623XXSP,2013-08-08 18:47:00,
2013-08-08 14:52:00,81.1,71.7,30.00,WNW,292,0.0,0.0,73,0.00,,,0.00,WUHU21623XXSP,2013-08-08 18:52:00,
2013-08-08 14:57:00,81.3,71.4,30.00,WNW,292,0.0,0.0,72,0.00,,,0.00,WUHU21623XXSP,2013-08-08 18:57:00,
2013-08-08 15:02:00,81.7,71.8,30.00,SSW,202,0.0,0.0,72,0.00,,,0.00,WUHU21623XXSP,2013-08-08 19:02:00,
2013-08-08 15:07:00,81.9,71.9,29.99,SSW,202,0.0,0.0,72,0.00,,,0.00,WUHU21623XXSP,2013-08-08 19:07:00,
2013-08-08 15:11:00,82.0,71.7,29.99,WSW,247,0.0,0.0,71,0.00,,,0.00,WUHU21623XXSP,2013-08-08 19:11:00,
2013-08-08 15:17:00,81.7,71.8,29.99,West,270,0.0,0.0,72,0.00,,,0.00,WUHU21623XXSP,2013-08-08 19:17:00,
2013-08-08 15:22:00,81.5,71.2,29.99,West,270,0.0,0.0,71,0.00,,,0.00,WUHU21623XXSP,2013-08-08 19:22:00,
2013-08-08 15:27:00,81.3,71.4,29.99,West,270,0.0,0.0,72,0.00,,,0.00,WUHU21623XXSP,2013-08-08 19:27:00,
2013-08-08 15:31:00,81.0,71.1,29.98,West,270,0.0,0.0,72,0.00,,,0.00,WUHU21623XXSP,2013-08-08 19:31:00,
2013-08-08 15:36:00,80.8,70.9,29.98,West,270,0.0,0.0,72,0.00,,,0.00,WUHU21623XXSP,2013-08-08 19:36:00,
2013-08-08 15:41:00,80.4,71.0,29.99,West,270,0.0,0.0,73,0.00,,,0.00,WUHU21623XXSP,2013-08-08 19:41:00,
2013-08-08 15:46:00,79.9,70.8,29.98,West,270,0.0,0.0,74,0.00,,,0.00,WUHU21623XXSP,2013-08-08 19:46:00,
2013-08-08 15:52:00,79.3,70.7,29.99,West,270,0.0,0.0,75,0.00,,,0.00,WUHU21623XXSP,2013-08-08 19:52:00,
2013-08-08 15:57:00,78.6,70.0,29.99,West,270,0.0,0.0,75,0.00,,,0.00,WUHU21623XXSP,2013-08-08 19:57:00,
2013-08-08 16:02:00,78.1,71.0,29.99,West,270,0.0,0.0,78,0.00,,,0.00,WUHU21623XXSP,2013-08-08 20:02:00,
2013-08-08 16:07:00,77.5,70.5,29.99,West,270,0.0,0.0,79,0.00,,,0.00,WUHU21623XXSP,2013-08-08 20:07:00,
2013-08-08 16:12:00,76.3,70.4,29.98,West,270,0.0,0.0,82,0.06,,,0.06,WUHU21623XXSP,2013-08-08 20:12:00,
2013-08-08 16:17:00,75.7,69.9,29.98,West,270,0.0,0.0,82,0.06,,,0.06,WUHU21623XXSP,2013-08-08 20:17:00,
2013-08-08 16:22:00,75.7,70.2,29.98,West,270,0.0,0.0,83,0.07,,,0.07,WUHU21623XXSP,2013-08-08 20:22:00,
2013-08-08 16:27:00,75.7,70.2,29.98,West,270,0.0,0.0,83,0.07,,,0.07,WUHU21623XXSP,2013-08-08 20:27:00,
2013-08-08 16:32:00,75.4,70.3,29.98,West,270,0.0,0.0,84,0.08,,,0.08,WUHU21623XXSP,2013-08-08 20:32:00,
2013-08-08 16:37:00,75.6,70.4,29.98,West,270,0.0,0.0,84,0.08,,,0.08,WUHU21623XXSP,2013-08-08 20:37:00,
2013-08-08 16:42:00,75.7,70.6,29.98,West,270,0.0,0.0,84,0.08,,,0.08,WUHU21623XXSP,2013-08-08 20:42:00,
2013-08-08 16:47:00,75.9,70.8,29.98,West,270,0.0,0.0,84,0.08,,,0.08,WUHU21623XXSP,2013-08-08 20:47:00,
2013-08-08 16:52:00,76.1,70.9,29.98,West,270,0.0,0.0,84,0.08,,,0.08,WUHU21623XXSP,2013-08-08 20:52:00,
2013-08-08 16:57:00,76.3,71.5,29.98,West,270,0.0,0.0,85,0.08,,,0.08,WUHU21623XXSP,2013-08-08 20:57:00,
2013-08-08 17:02:00,76.5,71.6,29.98,West,270,0.0,0.0,85,0.08,,,0.08,WUHU21623XXSP,2013-08-08 21:02:00,
2013-08-08 17:07:00,76.5,71.6,29.98,West,270,0.0,0.0,85,0.06,,,0.08,WUHU21623XXSP,2013-08-08 21:07:00,
2013-08-08 17:12:00,76.6,71.8,29.99,West,270,0.0,0.0,85,0.02,,,0.08,WUHU21623XXSP,2013-08-08 21:12:00,
2013-08-08 17:17:00,76.6,71.8,29.99,West,270,0.0,0.0,85,0.01,,,0.08,WUHU21623XXSP,2013-08-08 21:17:00,
2013-08-08 17:22:00,76.3,71.8,29.99,West,270,0.0,0.0,84,0.01,,,0.08,WUHU21623XXSP,2013-08-08 21:22:00,
2013-08-08 17:27:00,74.8,69.7,29.99,NNW,337,0.0,0.0,84,0.15,,,0.23,WUHU21623XXSP,2013-08-08 21:27:00,
2013-08-08 17:32:00,74.1,68.7,29.99,WSW,247,0.0,0.0,83,0.18,,,0.27,WUHU21623XXSP,2013-08-08 21:32:00,
2013-08-08 17:37:00,73.4,67.9,29.99,ESE,112,0.0,0.0,83,0.18,,,0.27,WUHU21623XXSP,2013-08-08 21:37:00,
2013-08-08 17:43:00,72.7,67.6,29.99,SSE,157,0.0,0.0,84,0.23,,,0.31,WUHU21623XXSP,2013-08-08 21:43:00,
2013-08-08 17:48:00,72.3,67.6,29.99,SSE,157,0.0,0.0,85,0.25,,,0.34,WUHU21623XXSP,2013-08-08 21:48:00,
2013-08-08 17:53:00,72.1,67.7,29.98,SSE,157,0.0,0.0,86,0.25,,,0.34,WUHU21623XXSP,2013-08-08 21:53:00,
2013-08-08 17:58:00,72.1,67.7,29.99,SSE,157,0.0,0.0,86,0.27,,,0.35,WUHU21623XXSP,2013-08-08 21:58:00,
2013-08-08 18:03:00,72.1,67.7,29.98,SSE,157,0.0,0.0,86,0.28,,,0.36,WUHU21623XXSP,2013-08-08 22:03:00,
2013-08-08 18:08:00,72.0,67.5,29.99,SSE,157,0.0,0.0,86,0.29,,,0.37,WUHU21623XXSP,2013-08-08 22:08:00,
2013-08-08 18:13:00,71.8,67.7,29.99,SSE,157,0.0,0.0,87,0.31,,,0.39,WUHU21623XXSP,2013-08-08 22:13:00,
2013-08-08 18:18:00,71.8,67.7,29.99,SSE,157,0.0,0.0,87,0.31,,,0.39,WUHU21623XXSP,2013-08-08 22:18:00,
2013-08-08 18:23:00,71.4,67.3,29.98,SSE,157,0.0,0.0,87,0.32,,,0.40,WUHU21623XXSP,2013-08-08 22:23:00,
2013-08-08 18:28:00,71.4,67.3,29.98,SSE,157,0.0,0.0,87,0.14,,,0.40,WUHU21623XXSP,2013-08-08 22:28:00,
2013-08-08 18:33:00,71.6,67.9,29.97,SSE,157,0.0,0.0,88,0.14,,,0.40,WUHU21623XXSP,2013-08-08 22:33:00,
2013-08-08 18:38:00,71.8,68.0,29.97,SSE,157,0.0,0.0,88,0.11,,,0.41,WUHU21623XXSP,2013-08-08 22:38:00,
2013-08-08 18:44:00,71.8,68.0,29.97,SSE,157,0.0,0.0,88,0.09,,,0.41,WUHU21623XXSP,2013-08-08 22:44:00,
2013-08-08 18:49:00,71.8,68.0,29.97,SSE,157,0.0,0.0,88,0.08,,,0.41,WUHU21623XXSP,2013-08-08 22:49:00,
2013-08-08 18:54:00,71.6,67.9,29.97,SSE,157,0.0,0.0,88,0.07,,,0.41,WUHU21623XXSP,2013-08-08 22:54:00,
2013-08-08 19:00:00,71.8,68.0,29.98,SSE,157,0.0,0.0,88,0.05,,,0.41,WUHU21623XXSP,2013-08-08 23:00:00,
2013-08-08 19:05:00,71.6,67.9,29.98,SSE,157,0.0,0.0,88,0.04,,,0.41,WUHU21623XXSP,2013-08-08 23:05:00,
2013-08-08 19:10:00,71.6,67.9,29.98,SSE,157,0.0,0.0,88,0.02,,,0.41,WUHU21623XXSP,2013-08-08 23:10:00,
2013-08-08 19:15:00,71.4,67.7,29.98,SE,135,0.0,0.0,88,0.02,,,0.41,WUHU21623XXSP,2013-08-08 23:15:00,
2013-08-08 19:20:00,71.4,67.7,29.98,SE,135,0.0,0.0,88,0.01,,,0.41,WUHU21623XXSP,2013-08-08 23:20:00,
2013-08-08 19:25:00,71.4,67.7,29.98,SE,135,0.0,0.0,88,0.02,,,0.42,WUHU21623XXSP,2013-08-08 23:25:00,
2013-08-08 19:30:00,71.4,67.7,29.98,SE,135,0.0,0.0,88,0.03,,,0.43,WUHU21623XXSP,2013-08-08 23:30:00,
2013-08-08 19:36:00,71.4,67.7,29.98,SE,135,0.0,0.0,88,0.02,,,0.43,WUHU21623XXSP,2013-08-08 23:36:00,
2013-08-08 19:41:00,71.2,67.7,29.98,SE,135,0.0,0.0,89,0.02,,,0.43,WUHU21623XXSP,2013-08-08 23:41:00,
2013-08-08 19:47:00,71.2,67.8,29.98,SE,135,0.0,0.0,89,0.02,,,0.43,WUHU21623XXSP,2013-08-08 23:47:00,
2013-08-08 19:52:00,71.2,67.8,29.98,SE,135,0.0,0.0,89,0.02,,,0.43,WUHU21623XXSP,2013-08-08 23:52:00,
2013-08-08 19:57:00,71.2,67.8,29.98,SSE,157,0.0,0.0,89,0.02,,,0.43,WUHU21623XXSP,2013-08-08 23:57:00,
2013-08-08 20:02:00,71.2,67.8,29.98,SSE,157,0.0,0.0,89,0.02,,,0.43,WUHU21623XXSP,2013-08-09 00:02:00,
2013-08-08 20:07:00,71.2,67.8,29.98,SSE,157,0.0,0.0,89,0.02,,,0.43,WUHU21623XXSP,2013-08-09 00:07:00,
2013-08-08 20:12:00,71.2,67.8,29.98,SSE,157,0.0,0.0,89,0.02,,,0.43,WUHU21623XXSP,2013-08-09 00:12:00,
2013-08-08 20:17:00,71.2,67.8,29.98,SSE,157,0.0,0.0,89,0.02,,,0.43,WUHU21623XXSP,2013-08-09 00:17:00,
2013-08-08 20:22:00,71.2,67.8,29.98,SSE,157,0.0,0.0,89,0.01,,,0.43,WUHU21623XXSP,2013-08-09 00:22:00,
2013-08-08 20:27:00,71.2,67.8,29.98,SSE,157,0.0,0.0,89,0.00,,,0.43,WUHU21623XXSP,2013-08-09 00:27:00,
2013-08-08 20:33:00,71.2,67.8,29.98,SSE,157,0.0,0.0,89,0.00,,,0.43,WUHU21623XXSP,2013-08-09 00:33:00,
2013-08-08 20:38:00,71.2,67.8,29.98,SSE,157,0.0,0.0,89,0.00,,,0.43,WUHU21623XXSP,2013-08-09 00:38:00,
2013-08-08 20:43:00,71.2,67.8,29.98,SSE,157,0.0,0.0,89,0.00,,,0.43,WUHU21623XXSP,2013-08-09 00:43:00,
2013-08-08 20:48:00,71.2,67.8,29.98,SSE,157,0.0,0.0,89,0.00,,,0.43,WUHU21623XXSP,2013-08-09 00:48:00,
2013-08-08 20:53:00,71.2,67.8,29.98,SSE,157,0.0,0.0,89,0.00,,,0.43,WUHU21623XXSP,2013-08-09 00:53:00,
2013-08-08 20:58:00,71.2,67.8,29.98,SSE,157,0.0,0.0,89,0.01,,,0.44,WUHU21623XXSP,2013-08-09 00:58:00,
2013-08-08 21:04:00,71.2,67.8,29.98,SSE,157,0.0,0.0,89,0.01,,,0.44,WUHU21623XXSP,2013-08-09 01:04:00,
2013-08-08 21:09:00,71.2,67.8,29.98,SSE,157,0.0,0.0,89,0.01,,,0.44,WUHU21623XXSP,2013-08-09 01:09:00,
2013-08-08 21:14:00,71.2,67.8,29.98,SSE,157,0.0,0.0,89,0.01,,,0.44,WUHU21623XXSP,2013-08-09 01:14:00,
2013-08-08 21:19:00,71.2,67.8,29.98,SSE,157,0.0,0.0,89,0.01,,,0.44,WUHU21623XXSP,2013-08-09 01:19:00,
2013-08-08 21:25:00,71.2,67.8,29.98,SSE,157,0.0,0.0,89,0.01,,,0.44,WUHU21623XXSP,2013-08-09 01:25:00,
2013-08-08 21:30:00,71.2,67.8,29.99,SSE,157,0.0,0.0,89,0.01,,,0.44,WUHU21623XXSP,2013-08-09 01:30:00,
2013-08-08 21:35:00,71.2,67.8,29.99,SSE,157,0.0,0.0,89,0.01,,,0.44,WUHU21623XXSP,2013-08-09 01:35:00,
2013-08-08 21:40:00,71.2,67.8,29.99,SSE,157,0.0,0.0,89,0.01,,,0.44,WUHU21623XXSP,2013-08-09 01:40:00,
2013-08-08 21:45:00,71.2,67.8,29.99,SSE,157,0.0,0.0,89,0.01,,,0.44,WUHU21623XXSP,2013-08-09 01:45:00,
2013-08-08 21:50:00,71.2,67.8,29.99,SSE,157,0.0,0.0,89,0.01,,,0.44,WUHU21623XXSP,2013-08-09 01:50:00,
2013-08-08 21:55:00,70.9,67.5,29.99,SSE,157,0.0,0.0,89,0.00,,,0.44,WUHU21623XXSP,2013-08-09 01:55:00,
2013-08-08 22:00:00,70.9,67.5,29.99,SSE,157,0.0,0.0,89,0.00,,,0.44,WUHU21623XXSP,2013-08-09 02:00:00,
2013-08-08 22:05:00,70.9,67.5,29.99,SSE,157,0.0,0.0,89,0.00,,,0.44,WUHU21623XXSP,2013-08-09 02:05:00,
2013-08-08 22:10:00,70.9,67.8,29.99,SSE,157,0.0,0.0,90,0.00,,,0.44,WUHU21623XXSP,2013-08-09 02:10:00,
2013-08-08 22:15:00,70.9,67.8,29.99,SSE,157,0.0,0.0,90,0.00,,,0.44,WUHU21623XXSP,2013-08-09 02:15:00,
2013-08-08 22:21:00,70.9,67.8,29.99,SSE,157,0.0,0.0,90,0.00,,,0.44,WUHU21623XXSP,2013-08-09 02:21:00,
2013-08-08 22:26:00,70.9,67.8,29.99,SSE,157,0.0,0.0,90,0.00,,,0.44,WUHU21623XXSP,2013-08-09 02:26:00,
2013-08-08 22:31:00,70.9,67.8,29.99,SSE,157,0.0,0.0,90,0.00,,,0.44,WUHU21623XXSP,2013-08-09 02:31:00,
2013-08-08 22:36:00,70.9,67.8,29.98,SSE,157,0.0,0.0,90,0.00,,,0.44,WUHU21623XXSP,2013-08-09 02:36:00,
2013-08-08 22:41:00,70.9,67.8,29.98,SSE,157,0.0,0.0,90,0.00,,,0.44,WUHU21623XXSP,2013-08-09 02:41:00,
2013-08-08 22:47:00,70.9,67.8,29.98,SSE,157,0.0,0.0,90,0.00,,,0.44,WUHU21623XXSP,2013-08-09 02:47:00,
2013-08-08 22:52:00,70.9,67.8,29.98,SSE,157,0.0,0.0,90,0.00,,,0.44,WUHU21623XXSP,2013-08-09 02:52:00,
2013-08-08 22:57:00,70.9,67.8,29.98,SSE,157,0.0,0.0,90,0.00,,,0.44,WUHU21623XXSP,2013-08-09 02:57:00,
2013-08-08 23:02:00,70.9,67.8,29.98,SSE,157,0.0,0.0,90,0.00,,,0.44,WUHU21623XXSP,2013-08-09 03:02:00,
2013-08-08 23:07:00,70.9,67.8,29.98,SSE,157,0.0,0.0,90,0.00,,,0.44,WUHU21623XXSP,2013-08-09 03:07:00,
2013-08-08 23:13:00,70.9,67.8,29.98,SSE,157,0.0,0.0,90,0.00,,,0.44,WUHU21623XXSP,2013-08-09 03:13:00,
2013-08-08 23:17:00,70.9,67.8,29.98,SSE,157,0.0,0.0,90,0.00,,,0.44,WUHU21623XXSP,2013-08-09 03:17:00,
2013-08-08 23:23:00,70.9,67.8,29.98,SSE,157,0.0,0.0,90,0.00,,,0.44,WUHU21623XXSP,2013-08-09 03:23:00,
2013-08-08 23:28:00,70.9,67.8,29.98,SSE,157,0.0,0.0,90,0.00,,,0.44,WUHU21623XXSP,2013-08-09 03:28:00,
2013-08-08 23:33:00,70.9,67.8,29.98,SSE,157,0.0,0.0,90,0.00,,,0.44,WUHU21623XXSP,2013-08-09 03:33:00,
2013-08-08 23:38:00,70.9,67.8,29.98,SSE,157,0.0,0.0,90,0.00,,,0.44,WUHU21623XXSP,2013-08-09 03:38:00,
2013-08-08 23:43:00,70.9,67.8,29.98,SSE,157,0.0,0.0,90,0.00,,,0.44,WUHU21623XXSP,2013-08-09 03:43:00,
2013-08-08 23:48:00,70.9,67.8,29.98,SSE,157,0.0,0.0,90,0.00,,,0.44,WUHU21623XXSP,2013-08-09 03:48:00,
2013-08-08 23:53:00,70.7,67.6,29.98,SSE,157,0.0,0.0,90,0.00,,,0.44,WUHU21623XXSP,2013-08-09 03:53:00,
2013-08-08 23:58:00,70.9,67.8,29.97,SSE,157,0.0,0.0,90,0.00,,,0.44,WUHU21623XXSP,2013-08-09 03:58:00,